sensor_id;sensor_type;location;lat;lon;timestamp;pressure;altitude;pressure_sealevel;temperature;humidity
2178;BME280;1095;50.992;6.798;2023-02-10T00:00:45;102810.66;;;2.62;99.15
2178;BME280;1095;50.992;6.798;2023-02-10T00:03:11;102812.41;;;2.61;98.84
2178;BME280;1095;50.992;6.798;2023-02-10T00:05:38;102830.19;;;2.71;98.77
2178;BME280;1095;50.992;6.798;2023-02-10T00:08:05;102821.50;;;2.73;98.73
2178;BME280;1095;50.992;6.798;2023-02-10T00:10:33;102821.63;;;2.69;98.23
2178;BME280;1095;50.992;6.798;2023-02-10T00:13:00;102834.41;;;2.73;98.35
2178;BME280;1095;50.992;6.798;2023-02-10T00:15:26;102822.13;;;2.80;98.31
2178;BME280;1095;50.992;6.798;2023-02-10T00:17:53;102816.38;;;2.72;98.22
2178;BME280;1095;50.992;6.798;2023-02-10T00:20:19;102828.41;;;2.73;97.97
2178;BME280;1095;50.992;6.798;2023-02-10T00:22:46;102815.72;;;2.65;98.06
2178;BME280;1095;50.992;6.798;2023-02-10T00:25:13;102815.53;;;2.71;97.82
2178;BME280;1095;50.992;6.798;2023-02-10T00:27:41;102816.56;;;2.65;97.97
2178;BME280;1095;50.992;6.798;2023-02-10T00:30:09;102813.13;;;2.65;98.15
2178;BME280;1095;50.992;6.798;2023-02-10T00:32:36;102815.94;;;2.59;97.82
2178;BME280;1095;50.992;6.798;2023-02-10T00:35:05;102830.38;;;2.64;98.06
2178;BME280;1095;50.992;6.798;2023-02-10T00:37:32;102820.91;;;2.65;97.75
2178;BME280;1095;50.992;6.798;2023-02-10T00:39:59;102825.81;;;2.73;97.83
2178;BME280;1095;50.992;6.798;2023-02-10T00:42:26;102829.44;;;2.67;98.08
2178;BME280;1095;50.992;6.798;2023-02-10T00:44:54;102833.03;;;2.63;97.83
2178;BME280;1095;50.992;6.798;2023-02-10T00:47:20;102839.13;;;2.60;97.98
2178;BME280;1095;50.992;6.798;2023-02-10T00:49:49;102820.91;;;2.65;97.77
2178;BME280;1095;50.992;6.798;2023-02-10T00:52:15;102827.97;;;2.60;97.88
2178;BME280;1095;50.992;6.798;2023-02-10T00:54:42;102828.84;;;2.59;98.44
2178;BME280;1095;50.992;6.798;2023-02-10T00:57:09;102834.06;;;2.57;98.01
2178;BME280;1095;50.992;6.798;2023-02-10T00:59:35;102835.06;;;2.53;98.65
2178;BME280;1095;50.992;6.798;2023-02-10T01:02:03;102844.59;;;2.51;98.65
2178;BME280;1095;50.992;6.798;2023-02-10T01:04:30;102843.00;;;2.47;98.73
2178;BME280;1095;50.992;6.798;2023-02-10T01:06:57;102845.75;;;2.43;98.92
2178;BME280;1095;50.992;6.798;2023-02-10T01:09:24;102844.16;;;2.39;98.78
2178;BME280;1095;50.992;6.798;2023-02-10T01:11:50;102852.94;;;2.35;98.79
2178;BME280;1095;50.992;6.798;2023-02-10T01:14:17;102850.38;;;2.33;99.56
2178;BME280;1095;50.992;6.798;2023-02-10T01:16:44;102849.50;;;2.34;99.67
2178;BME280;1095;50.992;6.798;2023-02-10T01:19:12;102849.53;;;2.32;99.44
2178;BME280;1095;50.992;6.798;2023-02-10T01:21:38;102847.81;;;2.33;99.85
2178;BME280;1095;50.992;6.798;2023-02-10T01:24:05;102857.97;;;2.38;99.98
2178;BME280;1095;50.992;6.798;2023-02-10T01:26:31;102868.38;;;2.36;99.80
2178;BME280;1095;50.992;6.798;2023-02-10T01:28:58;102863.97;;;2.38;100.00
2178;BME280;1095;50.992;6.798;2023-02-10T01:31:25;102868.16;;;2.42;100.00
2178;BME280;1095;50.992;6.798;2023-02-10T01:33:53;102856.28;;;2.37;100.00
2178;BME280;1095;50.992;6.798;2023-02-10T01:36:23;102867.44;;;2.37;100.00
2178;BME280;1095;50.992;6.798;2023-02-10T01:38:50;102860.69;;;2.35;100.00
2178;BME280;1095;50.992;6.798;2023-02-10T01:41:19;102865.84;;;2.35;100.00
2178;BME280;1095;50.992;6.798;2023-02-10T01:43:55;102865.78;;;2.36;100.00
2178;BME280;1095;50.992;6.798;2023-02-10T01:46:22;102866.56;;;2.38;100.00
2178;BME280;1095;50.992;6.798;2023-02-10T01:48:48;102858.63;;;2.44;100.00
2178;BME280;1095;50.992;6.798;2023-02-10T01:51:19;102863.53;;;2.52;100.00
2178;BME280;1095;50.992;6.798;2023-02-10T01:53:50;102865.22;;;2.53;99.74
2178;BME280;1095;50.992;6.798;2023-02-10T01:56:18;102867.81;;;2.53;99.76
2178;BME280;1095;50.992;6.798;2023-02-10T01:58:45;102868.63;;;2.55;99.72
2178;BME280;1095;50.992;6.798;2023-02-10T02:01:11;102881.44;;;2.58;99.72
2178;BME280;1095;50.992;6.798;2023-02-10T02:03:38;102883.97;;;2.59;99.24
2178;BME280;1095;50.992;6.798;2023-02-10T02:06:06;102882.28;;;2.58;98.82
2178;BME280;1095;50.992;6.798;2023-02-10T02:08:33;102878.72;;;2.62;99.26
2178;BME280;1095;50.992;6.798;2023-02-10T02:11:09;102885.63;;;2.62;99.33
2178;BME280;1095;50.992;6.798;2023-02-10T02:13:47;102884.13;;;2.55;99.27
2178;BME280;1095;50.992;6.798;2023-02-10T02:16:23;102880.59;;;2.57;99.22
2178;BME280;1095;50.992;6.798;2023-02-10T02:18:58;102877.25;;;2.54;99.51
2178;BME280;1095;50.992;6.798;2023-02-10T02:27:50;102888.34;;;2.57;98.97
2178;BME280;1095;50.992;6.798;2023-02-10T02:30:43;102885.84;;;2.54;98.94
2178;BME280;1095;50.992;6.798;2023-02-10T02:33:14;102893.75;;;2.50;99.31
2178;BME280;1095;50.992;6.798;2023-02-10T02:35:48;102895.41;;;2.52;99.23
2178;BME280;1095;50.992;6.798;2023-02-10T02:38:16;102891.13;;;2.51;99.35
2178;BME280;1095;50.992;6.798;2023-02-10T02:40:43;102900.53;;;2.54;99.46
2178;BME280;1095;50.992;6.798;2023-02-10T02:43:09;102899.72;;;2.52;99.27
2178;BME280;1095;50.992;6.798;2023-02-10T02:45:41;102902.41;;;2.49;99.42
2178;BME280;1095;50.992;6.798;2023-02-10T02:48:21;102898.19;;;2.46;99.26
2178;BME280;1095;50.992;6.798;2023-02-10T02:50:57;102905.88;;;2.48;99.18
2178;BME280;1095;50.992;6.798;2023-02-10T02:53:28;102912.66;;;2.52;99.23
2178;BME280;1095;50.992;6.798;2023-02-10T02:56:10;102911.06;;;2.48;98.89
2178;BME280;1095;50.992;6.798;2023-02-10T02:58:46;102909.97;;;2.55;99.42
2178;BME280;1095;50.992;6.798;2023-02-10T03:01:20;102916.97;;;2.51;99.39
2178;BME280;1095;50.992;6.798;2023-02-10T03:03:52;102917.06;;;2.48;99.30
2178;BME280;1095;50.992;6.798;2023-02-10T03:06:19;102908.59;;;2.43;99.14
2178;BME280;1095;50.992;6.798;2023-02-10T03:08:46;102913.03;;;2.40;99.33
2178;BME280;1095;50.992;6.798;2023-02-10T03:11:13;102921.63;;;2.40;99.38
2178;BME280;1095;50.992;6.798;2023-02-10T03:13:40;102917.47;;;2.36;99.36
2178;BME280;1095;50.992;6.798;2023-02-10T03:16:06;102920.78;;;2.40;99.61
2178;BME280;1095;50.992;6.798;2023-02-10T03:18:33;102917.59;;;2.31;99.45
2178;BME280;1095;50.992;6.798;2023-02-10T03:21:01;102914.09;;;2.34;100.00
2178;BME280;1095;50.992;6.798;2023-02-10T03:23:28;102921.56;;;2.42;100.00
2178;BME280;1095;50.992;6.798;2023-02-10T03:25:58;102919.00;;;2.42;99.84
2178;BME280;1095;50.992;6.798;2023-02-10T03:28:25;102918.28;;;2.37;99.98
2178;BME280;1095;50.992;6.798;2023-02-10T03:30:51;102920.16;;;2.33;100.00
2178;BME280;1095;50.992;6.798;2023-02-10T03:33:19;102928.09;;;2.27;100.00
2178;BME280;1095;50.992;6.798;2023-02-10T03:35:45;102929.81;;;2.26;100.00
2178;BME280;1095;50.992;6.798;2023-02-10T03:38:14;102920.38;;;2.25;100.00
2178;BME280;1095;50.992;6.798;2023-02-10T03:40:41;102910.38;;;2.15;100.00
2178;BME280;1095;50.992;6.798;2023-02-10T03:43:07;102903.81;;;2.03;100.00
2178;BME280;1095;50.992;6.798;2023-02-10T03:45:34;102902.41;;;1.93;100.00
2178;BME280;1095;50.992;6.798;2023-02-10T03:48:03;102889.09;;;1.77;100.00
2178;BME280;1095;50.992;6.798;2023-02-10T03:50:30;102890.84;;;1.77;100.00
2178;BME280;1095;50.992;6.798;2023-02-10T03:52:57;102892.72;;;1.72;100.00
2178;BME280;1095;50.992;6.798;2023-02-10T03:55:24;102870.41;;;1.69;100.00
2178;BME280;1095;50.992;6.798;2023-02-10T03:57:51;102872.91;;;1.72;100.00
2178;BME280;1095;50.992;6.798;2023-02-10T04:00:18;102865.38;;;1.64;100.00
2178;BME280;1095;50.992;6.798;2023-02-10T04:02:44;102858.50;;;1.65;100.00
2178;BME280;1095;50.992;6.798;2023-02-10T04:05:11;102857.00;;;1.56;100.00
2178;BME280;1095;50.992;6.798;2023-02-10T04:07:38;102858.88;;;1.51;100.00
2178;BME280;1095;50.992;6.798;2023-02-10T04:10:05;102869.31;;;1.47;100.00
2178;BME280;1095;50.992;6.798;2023-02-10T04:12:34;102886.63;;;1.43;100.00
2178;BME280;1095;50.992;6.798;2023-02-10T04:15:00;102893.66;;;1.38;100.00
2178;BME280;1095;50.992;6.798;2023-02-10T04:17:27;102901.59;;;1.30;100.00
2178;BME280;1095;50.992;6.798;2023-02-10T04:19:53;102903.69;;;1.16;100.00
2178;BME280;1095;50.992;6.798;2023-02-10T04:22:20;102909.19;;;1.03;100.00
2178;BME280;1095;50.992;6.798;2023-02-10T04:24:47;102906.97;;;0.90;100.00
2178;BME280;1095;50.992;6.798;2023-02-10T04:27:13;102904.63;;;0.80;100.00
2178;BME280;1095;50.992;6.798;2023-02-10T04:29:41;102901.50;;;0.67;100.00
2178;BME280;1095;50.992;6.798;2023-02-10T04:32:08;102905.91;;;0.62;100.00
2178;BME280;1095;50.992;6.798;2023-02-10T04:34:35;102911.28;;;0.53;100.00
2178;BME280;1095;50.992;6.798;2023-02-10T04:37:01;102910.66;;;0.45;100.00
2178;BME280;1095;50.992;6.798;2023-02-10T04:39:28;102915.94;;;0.39;100.00
2178;BME280;1095;50.992;6.798;2023-02-10T04:41:55;102924.53;;;0.38;100.00
2178;BME280;1095;50.992;6.798;2023-02-10T04:44:21;102922.69;;;0.44;100.00
2178;BME280;1095;50.992;6.798;2023-02-10T04:46:49;102920.19;;;0.40;100.00
2178;BME280;1095;50.992;6.798;2023-02-10T04:49:16;102916.81;;;0.38;100.00
2178;BME280;1095;50.992;6.798;2023-02-10T04:51:43;102916.59;;;0.47;100.00
2178;BME280;1095;50.992;6.798;2023-02-10T04:54:12;102909.66;;;0.49;100.00
2178;BME280;1095;50.992;6.798;2023-02-10T04:56:39;102926.81;;;0.50;100.00
2178;BME280;1095;50.992;6.798;2023-02-10T04:59:08;102920.97;;;0.43;100.00
2178;BME280;1095;50.992;6.798;2023-02-10T05:01:35;102922.00;;;0.36;100.00
2178;BME280;1095;50.992;6.798;2023-02-10T05:04:05;102941.63;;;0.42;100.00
2178;BME280;1095;50.992;6.798;2023-02-10T05:06:32;102936.75;;;0.29;100.00
2178;BME280;1095;50.992;6.798;2023-02-10T05:08:59;102944.25;;;0.39;100.00
2178;BME280;1095;50.992;6.798;2023-02-10T05:11:28;102931.66;;;0.26;100.00
2178;BME280;1095;50.992;6.798;2023-02-10T05:13:55;102937.69;;;0.25;100.00
2178;BME280;1095;50.992;6.798;2023-02-10T05:16:21;102937.75;;;0.22;100.00
2178;BME280;1095;50.992;6.798;2023-02-10T05:18:50;102936.81;;;0.26;100.00
2178;BME280;1095;50.992;6.798;2023-02-10T05:21:18;102934.22;;;0.26;100.00
2178;BME280;1095;50.992;6.798;2023-02-10T05:23:46;102950.38;;;0.35;100.00
2178;BME280;1095;50.992;6.798;2023-02-10T05:26:13;102944.19;;;0.42;100.00
2178;BME280;1095;50.992;6.798;2023-02-10T05:28:40;102941.00;;;0.30;100.00
2178;BME280;1095;50.992;6.798;2023-02-10T05:31:06;102942.69;;;0.31;100.00
2178;BME280;1095;50.992;6.798;2023-02-10T05:33:33;102935.78;;;0.33;100.00
2178;BME280;1095;50.992;6.798;2023-02-10T05:36:01;102933.00;;;0.43;100.00
2178;BME280;1095;50.992;6.798;2023-02-10T05:38:29;102940.81;;;0.40;100.00
2178;BME280;1095;50.992;6.798;2023-02-10T05:40:57;102941.59;;;0.43;100.00
2178;BME280;1095;50.992;6.798;2023-02-10T05:43:24;102946.88;;;0.37;100.00
2178;BME280;1095;50.992;6.798;2023-02-10T05:45:51;102946.28;;;0.24;100.00
2178;BME280;1095;50.992;6.798;2023-02-10T05:48:17;102948.25;;;0.13;100.00
2178;BME280;1095;50.992;6.798;2023-02-10T05:50:44;102946.69;;;0.05;100.00
2178;BME280;1095;50.992;6.798;2023-02-10T05:53:10;102955.03;;;0.17;100.00
2178;BME280;1095;50.992;6.798;2023-02-10T05:55:39;102954.13;;;0.18;100.00
2178;BME280;1095;50.992;6.798;2023-02-10T05:58:06;102954.34;;;0.09;100.00
2178;BME280;1095;50.992;6.798;2023-02-10T06:00:33;102956.22;;;0.01;100.00
2178;BME280;1095;50.992;6.798;2023-02-10T06:02:59;102959.88;;;-0.09;100.00
2178;BME280;1095;50.992;6.798;2023-02-10T06:05:26;102954.84;;;-0.15;100.00
2178;BME280;1095;50.992;6.798;2023-02-10T06:07:52;102958.31;;;-0.18;100.00
2178;BME280;1095;50.992;6.798;2023-02-10T06:10:21;102954.22;;;-0.26;100.00
2178;BME280;1095;50.992;6.798;2023-02-10T06:12:49;102947.41;;;-0.30;100.00
2178;BME280;1095;50.992;6.798;2023-02-10T06:15:16;102961.16;;;-0.31;100.00
2178;BME280;1095;50.992;6.798;2023-02-10T06:17:42;102951.84;;;-0.37;100.00
2178;BME280;1095;50.992;6.798;2023-02-10T06:20:09;102964.72;;;-0.39;100.00
2178;BME280;1095;50.992;6.798;2023-02-10T06:22:37;102968.13;;;-0.37;100.00
2178;BME280;1095;50.992;6.798;2023-02-10T06:25:04;102969.88;;;-0.39;100.00
2178;BME280;1095;50.992;6.798;2023-02-10T06:27:31;102975.22;;;-0.48;100.00
2178;BME280;1095;50.992;6.798;2023-02-10T06:30:04;102974.34;;;-0.48;100.00
2178;BME280;1095;50.992;6.798;2023-02-10T06:32:31;102983.69;;;-0.44;100.00
2178;BME280;1095;50.992;6.798;2023-02-10T06:37:35;102992.63;;;-0.63;100.00
2178;BME280;1095;50.992;6.798;2023-02-10T06:40:02;102991.88;;;-0.70;100.00
2178;BME280;1095;50.992;6.798;2023-02-10T06:42:29;102992.69;;;-0.68;100.00
2178;BME280;1095;50.992;6.798;2023-02-10T06:44:56;103001.19;;;-0.63;100.00
2178;BME280;1095;50.992;6.798;2023-02-10T06:47:24;102990.31;;;-0.31;100.00
2178;BME280;1095;50.992;6.798;2023-02-10T06:49:50;103002.31;;;-0.31;100.00
2178;BME280;1095;50.992;6.798;2023-02-10T06:52:17;103005.25;;;-0.50;100.00
2178;BME280;1095;50.992;6.798;2023-02-10T06:54:44;103011.22;;;-0.48;100.00
2178;BME280;1095;50.992;6.798;2023-02-10T06:57:13;103020.00;;;-0.61;100.00
2178;BME280;1095;50.992;6.798;2023-02-10T06:59:40;103014.06;;;-0.64;100.00
2178;BME280;1095;50.992;6.798;2023-02-10T07:02:08;103025.69;;;-0.44;100.00
2178;BME280;1095;50.992;6.798;2023-02-10T07:04:36;103023.09;;;-0.42;100.00
2178;BME280;1095;50.992;6.798;2023-02-10T07:07:03;103024.75;;;-0.40;100.00
2178;BME280;1095;50.992;6.798;2023-02-10T07:09:30;103021.09;;;-0.26;100.00
2178;BME280;1095;50.992;6.798;2023-02-10T07:11:58;103028.69;;;-0.19;100.00
2178;BME280;1095;50.992;6.798;2023-02-10T07:14:24;103036.34;;;-0.16;100.00
2178;BME280;1095;50.992;6.798;2023-02-10T07:16:51;103019.25;;;-0.18;100.00
2178;BME280;1095;50.992;6.798;2023-02-10T07:19:18;103023.34;;;-0.08;100.00
2178;BME280;1095;50.992;6.798;2023-02-10T07:21:46;103025.22;;;0.25;100.00
2178;BME280;1095;50.992;6.798;2023-02-10T07:24:12;103027.06;;;0.20;100.00
2178;BME280;1095;50.992;6.798;2023-02-10T07:26:40;103028.50;;;0.33;100.00
2178;BME280;1095;50.992;6.798;2023-02-10T07:29:06;103025.16;;;0.28;100.00
2178;BME280;1095;50.992;6.798;2023-02-10T07:31:33;103026.88;;;0.29;100.00
2178;BME280;1095;50.992;6.798;2023-02-10T07:34:00;103028.63;;;0.27;100.00
2178;BME280;1095;50.992;6.798;2023-02-10T07:36:27;103027.78;;;0.27;100.00
2178;BME280;1095;50.992;6.798;2023-02-10T07:38:55;103024.25;;;0.31;100.00
2178;BME280;1095;50.992;6.798;2023-02-10T07:41:22;103024.22;;;0.32;100.00
2178;BME280;1095;50.992;6.798;2023-02-10T07:43:49;103025.06;;;0.33;100.00
2178;BME280;1095;50.992;6.798;2023-02-10T07:46:15;103019.78;;;0.41;100.00
2178;BME280;1095;50.992;6.798;2023-02-10T07:48:42;103013.13;;;0.30;100.00
2178;BME280;1095;50.992;6.798;2023-02-10T07:51:08;103013.59;;;0.48;100.00
2178;BME280;1095;50.992;6.798;2023-02-10T07:53:35;103015.44;;;0.43;100.00
2178;BME280;1095;50.992;6.798;2023-02-10T07:56:04;103016.88;;;0.54;100.00
2178;BME280;1095;50.992;6.798;2023-02-10T08:01:49;103016.97;;;0.50;100.00
2178;BME280;1095;50.992;6.798;2023-02-10T08:04:16;103012.50;;;0.58;100.00
2178;BME280;1095;50.992;6.798;2023-02-10T08:06:46;103018.03;;;0.80;100.00
2178;BME280;1095;50.992;6.798;2023-02-10T08:09:13;103020.72;;;1.11;100.00
2178;BME280;1095;50.992;6.798;2023-02-10T08:11:43;103007.31;;;1.32;100.00
2178;BME280;1095;50.992;6.798;2023-02-10T08:14:10;103003.78;;;1.36;100.00
2178;BME280;1095;50.992;6.798;2023-02-10T08:16:37;103010.69;;;1.36;100.00
2178;BME280;1095;50.992;6.798;2023-02-10T08:19:03;103015.38;;;1.52;100.00
2178;BME280;1095;50.992;6.798;2023-02-10T08:21:30;103004.34;;;1.80;100.00
2178;BME280;1095;50.992;6.798;2023-02-10T08:24:00;102995.63;;;2.13;100.00
2178;BME280;1095;50.992;6.798;2023-02-10T08:26:27;103012.41;;;2.57;100.00
2178;BME280;1095;50.992;6.798;2023-02-10T08:28:55;103002.84;;;2.87;100.00
2178;BME280;1095;50.992;6.798;2023-02-10T08:31:23;102997.28;;;2.99;100.00
2178;BME280;1095;50.992;6.798;2023-02-10T08:33:50;103003.34;;;2.98;100.00
2178;BME280;1095;50.992;6.798;2023-02-10T08:36:19;103009.78;;;3.13;100.00
2178;BME280;1095;50.992;6.798;2023-02-10T08:38:47;103017.50;;;3.15;99.68
2178;BME280;1095;50.992;6.798;2023-02-10T08:41:15;103020.53;;;3.27;99.00
2178;BME280;1095;50.992;6.798;2023-02-10T08:43:41;103015.06;;;3.35;98.58
2178;BME280;1095;50.992;6.798;2023-02-10T08:46:10;103018.78;;;3.53;97.76
2178;BME280;1095;50.992;6.798;2023-02-10T08:48:36;103021.22;;;3.57;97.23
2178;BME280;1095;50.992;6.798;2023-02-10T08:51:06;103011.09;;;3.51;96.70
2178;BME280;1095;50.992;6.798;2023-02-10T08:53:33;103009.28;;;3.53;96.64
2178;BME280;1095;50.992;6.798;2023-02-10T08:56:01;103017.75;;;3.58;96.20
2178;BME280;1095;50.992;6.798;2023-02-10T08:58:29;103020.69;;;3.48;95.78
2178;BME280;1095;50.992;6.798;2023-02-10T09:00:55;103021.34;;;3.54;96.01
2178;BME280;1095;50.992;6.798;2023-02-10T09:03:24;103016.91;;;3.58;95.91
2178;BME280;1095;50.992;6.798;2023-02-10T09:05:51;103014.66;;;3.47;95.55
2178;BME280;1095;50.992;6.798;2023-02-10T09:08:18;103014.09;;;3.13;96.42
2178;BME280;1095;50.992;6.798;2023-02-10T09:10:45;103017.75;;;3.32;96.92
2178;BME280;1095;50.992;6.798;2023-02-10T09:13:13;103021.28;;;3.05;97.29
2178;BME280;1095;50.992;6.798;2023-02-10T09:15:41;103022.66;;;3.15;98.33
2178;BME280;1095;50.992;6.798;2023-02-10T09:18:09;103019.38;;;3.10;98.18
2178;BME280;1095;50.992;6.798;2023-02-10T09:20:37;103023.13;;;3.27;98.47
2178;BME280;1095;50.992;6.798;2023-02-10T09:23:04;103019.31;;;3.38;97.75
2178;BME280;1095;50.992;6.798;2023-02-10T09:25:31;103033.97;;;3.63;97.76
2178;BME280;1095;50.992;6.798;2023-02-10T09:27:58;103036.44;;;3.42;97.58
2178;BME280;1095;50.992;6.798;2023-02-10T09:30:25;103045.22;;;3.62;97.63
2178;BME280;1095;50.992;6.798;2023-02-10T09:32:52;103034.03;;;3.62;97.56
2178;BME280;1095;50.992;6.798;2023-02-10T09:35:19;103040.03;;;3.62;97.61
2178;BME280;1095;50.992;6.798;2023-02-10T09:37:47;103036.72;;;3.59;97.31
2178;BME280;1095;50.992;6.798;2023-02-10T09:40:17;103026.44;;;3.81;97.84
2178;BME280;1095;50.992;6.798;2023-02-10T09:43:00;103037.16;;;3.95;97.65
2178;BME280;1095;50.992;6.798;2023-02-10T09:45:33;103041.59;;;4.16;97.27
2178;BME280;1095;50.992;6.798;2023-02-10T09:48:20;103032.19;;;4.14;95.98
2178;BME280;1095;50.992;6.798;2023-02-10T09:50:57;103036.38;;;3.93;96.46
2178;BME280;1095;50.992;6.798;2023-02-10T09:53:28;103036.25;;;3.96;96.89
2178;BME280;1095;50.992;6.798;2023-02-10T09:55:57;103042.38;;;4.18;96.83
2178;BME280;1095;50.992;6.798;2023-02-10T09:58:30;103050.25;;;4.39;96.96
2178;BME280;1095;50.992;6.798;2023-02-10T10:01:02;103042.00;;;4.51;96.47
2178;BME280;1095;50.992;6.798;2023-02-10T10:03:38;103050.06;;;4.43;95.33
2178;BME280;1095;50.992;6.798;2023-02-10T10:06:14;103053.97;;;4.55;95.44
2178;BME280;1095;50.992;6.798;2023-02-10T10:08:53;103061.03;;;4.95;94.69
2178;BME280;1095;50.992;6.798;2023-02-10T10:11:26;103062.06;;;5.13;94.57
2178;BME280;1095;50.992;6.798;2023-02-10T10:13:56;103063.88;;;5.11;93.25
2178;BME280;1095;50.992;6.798;2023-02-10T10:19:21;103053.03;;;5.21;92.90
2178;BME280;1095;50.992;6.798;2023-02-10T10:22:04;103059.28;;;5.17;92.37
2178;BME280;1095;50.992;6.798;2023-02-10T10:24:53;103059.06;;;5.22;92.09
2178;BME280;1095;50.992;6.798;2023-02-10T10:27:30;103051.75;;;5.31;92.56
2178;BME280;1095;50.992;6.798;2023-02-10T10:30:02;103062.75;;;5.38;92.24
2178;BME280;1095;50.992;6.798;2023-02-10T10:32:38;103065.75;;;5.49;91.78
2178;BME280;1095;50.992;6.798;2023-02-10T10:35:14;103072.25;;;5.59;91.33
2178;BME280;1095;50.992;6.798;2023-02-10T10:37:41;103069.34;;;5.67;91.44
2178;BME280;1095;50.992;6.798;2023-02-10T10:40:15;103067.50;;;5.69;91.19
2178;BME280;1095;50.992;6.798;2023-02-10T10:42:45;103074.06;;;5.78;90.98
2178;BME280;1095;50.992;6.798;2023-02-10T10:45:16;103070.34;;;5.83;90.58
2178;BME280;1095;50.992;6.798;2023-02-10T10:47:46;103068.84;;;5.78;90.01
2178;BME280;1095;50.992;6.798;2023-02-10T10:50:16;103063.41;;;5.84;89.52
2178;BME280;1095;50.992;6.798;2023-02-10T10:52:45;103060.56;;;5.90;89.03
2178;BME280;1095;50.992;6.798;2023-02-10T10:55:20;103041.34;;;5.94;88.49
2178;BME280;1095;50.992;6.798;2023-02-10T10:57:48;103053.03;;;6.04;88.13
2178;BME280;1095;50.992;6.798;2023-02-10T11:00:19;103048.59;;;6.06;88.41
2178;BME280;1095;50.992;6.798;2023-02-10T11:02:55;103041.59;;;6.08;88.00
2178;BME280;1095;50.992;6.798;2023-02-10T11:05:26;103042.22;;;6.13;88.40
2178;BME280;1095;50.992;6.798;2023-02-10T11:07:54;103035.59;;;6.06;88.36
2178;BME280;1095;50.992;6.798;2023-02-10T11:10:26;103046.66;;;6.30;88.00
2178;BME280;1095;50.992;6.798;2023-02-10T11:12:54;103043.63;;;6.39;87.97
2178;BME280;1095;50.992;6.798;2023-02-10T11:15:30;103040.03;;;6.42;87.70
2178;BME280;1095;50.992;6.798;2023-02-10T11:17:58;103032.53;;;6.54;87.85
2178;BME280;1095;50.992;6.798;2023-02-10T11:20:28;103028.97;;;6.74;86.63
2178;BME280;1095;50.992;6.798;2023-02-10T11:22:56;103016.22;;;6.87;85.74
2178;BME280;1095;50.992;6.798;2023-02-10T11:25:29;103021.28;;;6.90;85.24
2178;BME280;1095;50.992;6.798;2023-02-10T11:27:58;103017.34;;;6.81;85.03
2178;BME280;1095;50.992;6.798;2023-02-10T11:30:26;103019.44;;;7.09;84.69
2178;BME280;1095;50.992;6.798;2023-02-10T11:32:54;103025.50;;;7.10;84.36
2178;BME280;1095;50.992;6.798;2023-02-10T11:35:22;103013.88;;;7.17;83.69
2178;BME280;1095;50.992;6.798;2023-02-10T11:37:52;103013.72;;;7.20;83.91
2178;BME280;1095;50.992;6.798;2023-02-10T11:40:21;102991.97;;;7.21;82.94
2178;BME280;1095;50.992;6.798;2023-02-10T11:42:51;103008.22;;;7.43;82.30
2178;BME280;1095;50.992;6.798;2023-02-10T11:45:20;102990.75;;;7.45;81.35
2178;BME280;1095;50.992;6.798;2023-02-10T11:47:59;102985.56;;;7.61;80.59
2178;BME280;1095;50.992;6.798;2023-02-10T11:50:28;102982.41;;;7.72;80.56
2178;BME280;1095;50.992;6.798;2023-02-10T11:52:56;102999.72;;;7.73;80.54
2178;BME280;1095;50.992;6.798;2023-02-10T11:55:29;102986.31;;;7.47;80.63
2178;BME280;1095;50.992;6.798;2023-02-10T11:58:11;102984.38;;;7.33;80.76
2178;BME280;1095;50.992;6.798;2023-02-10T12:01:01;102986.56;;;7.58;81.32
2178;BME280;1095;50.992;6.798;2023-02-10T12:06:30;102976.22;;;7.57;80.48
2178;BME280;1095;50.992;6.798;2023-02-10T12:09:03;102969.34;;;7.56;80.76
2178;BME280;1095;50.992;6.798;2023-02-10T12:11:39;102987.06;;;7.49;80.60
2178;BME280;1095;50.992;6.798;2023-02-10T12:14:22;102983.16;;;7.41;80.24
2178;BME280;1095;50.992;6.798;2023-02-10T12:16:57;102970.66;;;7.47;80.70
2178;BME280;1095;50.992;6.798;2023-02-10T12:19:33;102985.38;;;7.48;80.93
2178;BME280;1095;50.992;6.798;2023-02-10T12:22:04;102964.69;;;7.45;81.14
2178;BME280;1095;50.992;6.798;2023-02-10T12:24:52;102960.69;;;7.55;81.46
2178;BME280;1095;50.992;6.798;2023-02-10T12:27:33;102963.72;;;7.63;80.81
2178;BME280;1095;50.992;6.798;2023-02-10T12:30:08;102949.63;;;7.68;80.09
2178;BME280;1095;50.992;6.798;2023-02-10T12:32:49;102945.31;;;7.99;78.66
2178;BME280;1095;50.992;6.798;2023-02-10T12:35:27;102947.31;;;8.26;77.39
2178;BME280;1095;50.992;6.798;2023-02-10T12:38:04;102934.34;;;8.56;76.00
2178;BME280;1095;50.992;6.798;2023-02-10T12:40:48;102926.41;;;8.73;75.08
2178;BME280;1095;50.992;6.798;2023-02-10T12:43:38;102904.03;;;8.69;74.08
2178;BME280;1095;50.992;6.798;2023-02-10T12:46:17;102908.06;;;8.75;73.50
2178;BME280;1095;50.992;6.798;2023-02-10T12:49:06;102889.38;;;8.67;73.31
2178;BME280;1095;50.992;6.798;2023-02-10T12:51:44;102897.59;;;8.75;72.33
2178;BME280;1095;50.992;6.798;2023-02-10T12:54:14;102891.53;;;8.74;71.19
2178;BME280;1095;50.992;6.798;2023-02-10T12:56:47;102886.91;;;8.79;70.80
2178;BME280;1095;50.992;6.798;2023-02-10T12:59:20;102896.63;;;8.61;70.94
2178;BME280;1095;50.992;6.798;2023-02-10T13:01:52;102893.16;;;8.47;71.21
2178;BME280;1095;50.992;6.798;2023-02-10T13:04:23;102880.16;;;8.29;71.76
2178;BME280;1095;50.992;6.798;2023-02-10T13:06:56;102896.34;;;8.20;72.28
2178;BME280;1095;50.992;6.798;2023-02-10T13:09:28;102895.31;;;8.07;72.96
2178;BME280;1095;50.992;6.798;2023-02-10T13:12:13;102883.50;;;8.02;73.10
2178;BME280;1095;50.992;6.798;2023-02-10T13:14:42;102882.03;;;8.12;72.87
2178;BME280;1095;50.992;6.798;2023-02-10T13:17:12;102879.44;;;8.12;72.57
2178;BME280;1095;50.992;6.798;2023-02-10T13:19:45;102876.50;;;8.02;72.53
2178;BME280;1095;50.992;6.798;2023-02-10T13:22:19;102881.63;;;8.04;72.67
2178;BME280;1095;50.992;6.798;2023-02-10T13:24:56;102879.28;;;7.99;72.89
2178;BME280;1095;50.992;6.798;2023-02-10T13:27:32;102873.19;;;8.14;72.50
2178;BME280;1095;50.992;6.798;2023-02-10T13:30:16;102878.50;;;8.28;72.09
2178;BME280;1095;50.992;6.798;2023-02-10T13:32:57;102872.09;;;8.18;71.61
2178;BME280;1095;50.992;6.798;2023-02-10T13:35:28;102876.91;;;8.10;72.13
2178;BME280;1095;50.992;6.798;2023-02-10T13:37:57;102875.91;;;7.97;72.37
2178;BME280;1095;50.992;6.798;2023-02-10T13:40:28;102872.56;;;7.95;72.27
2178;BME280;1095;50.992;6.798;2023-02-10T13:42:56;102875.50;;;7.89;72.21
2178;BME280;1095;50.992;6.798;2023-02-10T13:45:26;102868.09;;;7.81;72.41
2178;BME280;1095;50.992;6.798;2023-02-10T13:47:55;102873.91;;;7.86;72.68